Hovedside
METAR-TAF:

METAR-TAF

Lufthavner :

Bizerte, Tunisia

breddegrad: 37-15N, lengdegrad: 009-48E, høyde over havet: 5 m

Gjeldene værobservasjon

Denne rapporten ble laget for 1 time og 12 minutter siden, klokken 16:00 UTC
Vind 18 kt fra Vest-nordvest
Temperatur 20°C
Luftfuktighet 73%
Trykk 1020 hPa
Sikt 10 km eller mer
Spredte skyer i en høyde av 2000 ft

METAR: DTTB 261600Z 29018KT 9999 SCT020 20/15 Q1020

Tid: 18:12 (17:12 UTC)


TAF: fraværende

Værobservasjoner og værvarsel for over 4000 flyplasser (METAR- og TAF-rapporter).

Tilgjengelige stasjoner er representert av de røde og gule prikkene på kartet.

Hold musepekeren over prikken for å se navnet på stasjonen.

Klikk så for å se værobservasjoner og -varsler.

For å forandre kartet kan du klikke på den grønne knappen med svart kryss for å zoome inn, på den grønne knappen med strek for å zoome ut, eller på de grønne pilene for å se tilstøtende kart.


METAR-TAF: